sensor_id;sensor_type;location;lat;lon;timestamp;pressure;altitude;pressure_sealevel;temperature;humidity
22389;BME280;11362;48.102;11.620;2023-03-22T00:00:37;95086.53;;;23.57;35.68
22389;BME280;11362;48.102;11.620;2023-03-22T00:03:04;95078.22;;;23.57;35.66
22389;BME280;11362;48.102;11.620;2023-03-22T00:05:29;95082.97;;;23.57;35.65
22389;BME280;11362;48.102;11.620;2023-03-22T00:07:55;95070.66;;;23.58;35.72
22389;BME280;11362;48.102;11.620;2023-03-22T00:10:20;95078.22;;;23.57;35.65
22389;BME280;11362;48.102;11.620;2023-03-22T00:12:46;95070.66;;;23.58;35.57
22389;BME280;11362;48.102;11.620;2023-03-22T00:15:11;95062.00;;;23.56;35.44
22389;BME280;11362;48.102;11.620;2023-03-22T00:17:36;95064.34;;;23.57;35.71
22389;BME280;11362;48.102;11.620;2023-03-22T00:20:03;95055.25;;;23.57;35.56
22389;BME280;11362;48.102;11.620;2023-03-22T00:22:28;95054.03;;;23.58;35.58
22389;BME280;11362;48.102;11.620;2023-03-22T00:24:53;95057.25;;;23.56;35.50
22389;BME280;11362;48.102;11.620;2023-03-22T00:27:19;95055.25;;;23.57;35.57
22389;BME280;11362;48.102;11.620;2023-03-22T00:29:44;95053.69;;;23.56;35.42
22389;BME280;11362;48.102;11.620;2023-03-22T00:32:09;95051.69;;;23.56;35.61
22389;BME280;11362;48.102;11.620;2023-03-22T00:34:34;95051.69;;;23.56;35.62
22389;BME280;11362;48.102;11.620;2023-03-22T00:37:00;95050.13;;;23.55;35.67
22389;BME280;11362;48.102;11.620;2023-03-22T00:39:25;95040.63;;;23.56;35.56
22389;BME280;11362;48.102;11.620;2023-03-22T00:41:50;95044.56;;;23.55;35.54
22389;BME280;11362;48.102;11.620;2023-03-22T00:44:16;95032.28;;;23.56;35.44
22389;BME280;11362;48.102;11.620;2023-03-22T00:46:41;95031.91;;;23.54;35.46
22389;BME280;11362;48.102;11.620;2023-03-22T00:49:06;95023.97;;;23.56;35.70
22389;BME280;11362;48.102;11.620;2023-03-22T00:51:31;95014.50;;;23.54;35.47
22389;BME280;11362;48.102;11.620;2023-03-22T00:53:57;95012.09;;;23.56;35.52
22389;BME280;11362;48.102;11.620;2023-03-22T00:56:22;95016.06;;;23.55;35.40
22389;BME280;11362;48.102;11.620;2023-03-22T00:58:47;95020.41;;;23.56;35.52
22389;BME280;11362;48.102;11.620;2023-03-22T01:01:13;95019.63;;;23.55;35.75
22389;BME280;11362;48.102;11.620;2023-03-22T01:03:39;95020.81;;;23.54;35.47
22389;BME280;11362;48.102;11.620;2023-03-22T01:06:04;95016.06;;;23.55;35.59
22389;BME280;11362;48.102;11.620;2023-03-22T01:08:30;95017.63;;;23.56;35.44
22389;BME280;11362;48.102;11.620;2023-03-22T01:10:55;95025.16;;;23.55;35.42
22389;BME280;11362;48.102;11.620;2023-03-22T01:13:20;95022.38;;;23.55;35.38
22389;BME280;11362;48.102;11.620;2023-03-22T01:15:49;95023.97;;;23.56;35.36
22389;BME280;11362;48.102;11.620;2023-03-22T01:18:14;95019.63;;;23.55;35.29
22389;BME280;11362;48.102;11.620;2023-03-22T01:20:40;95022.38;;;23.55;35.39
22389;BME280;11362;48.102;11.620;2023-03-22T01:23:05;95016.84;;;23.55;35.45
22389;BME280;11362;48.102;11.620;2023-03-22T01:25:30;95020.41;;;23.56;35.38
22389;BME280;11362;48.102;11.620;2023-03-22T01:27:56;95016.84;;;23.55;35.41
22389;BME280;11362;48.102;11.620;2023-03-22T01:30:21;95016.06;;;23.55;35.10
22389;BME280;11362;48.102;11.620;2023-03-22T01:32:46;95001.84;;;23.53;35.24
22389;BME280;11362;48.102;11.620;2023-03-22T01:35:11;95007.75;;;23.55;35.29
22389;BME280;11362;48.102;11.620;2023-03-22T01:37:37;95001.41;;;23.54;35.28
22389;BME280;11362;48.102;11.620;2023-03-22T01:40:03;95006.53;;;23.56;35.30
22389;BME280;11362;48.102;11.620;2023-03-22T01:42:28;94999.44;;;23.55;35.31
22389;BME280;11362;48.102;11.620;2023-03-22T01:47:51;94989.56;;;23.54;35.18
22389;BME280;11362;48.102;11.620;2023-03-22T01:50:20;94991.53;;;23.53;35.34
22389;BME280;11362;48.102;11.620;2023-03-22T01:52:47;94986.78;;;23.54;35.32
22389;BME280;11362;48.102;11.620;2023-03-22T01:55:13;94986.00;;;23.53;35.38
22389;BME280;11362;48.102;11.620;2023-03-22T01:57:39;94987.56;;;23.54;35.35
22389;BME280;11362;48.102;11.620;2023-03-22T02:00:09;94991.53;;;23.53;35.28
22389;BME280;11362;48.102;11.620;2023-03-22T02:02:35;95000.66;;;23.54;35.20
22389;BME280;11362;48.102;11.620;2023-03-22T02:05:01;95000.66;;;23.54;35.33
22389;BME280;11362;48.102;11.620;2023-03-22T02:07:27;94994.66;;;23.55;35.18
22389;BME280;11362;48.102;11.620;2023-03-22T02:09:53;94993.91;;;23.55;35.19
22389;BME280;11362;48.102;11.620;2023-03-22T02:12:40;94983.22;;;23.53;35.11
22389;BME280;11362;48.102;11.620;2023-03-22T02:15:48;94993.91;;;23.55;35.16
22389;BME280;11362;48.102;11.620;2023-03-22T02:18:44;94989.56;;;23.54;35.23
22389;BME280;11362;48.102;11.620;2023-03-22T02:21:37;94989.56;;;23.54;35.23
22389;BME280;11362;48.102;11.620;2023-03-22T02:24:51;94987.56;;;23.54;35.17
22389;BME280;11362;48.102;11.620;2023-03-22T02:32:39;94975.69;;;23.54;35.13
22389;BME280;11362;48.102;11.620;2023-03-22T02:35:29;94974.91;;;23.53;35.24
22389;BME280;11362;48.102;11.620;2023-03-22T02:38:23;94977.69;;;23.53;35.28
22389;BME280;11362;48.102;11.620;2023-03-22T02:41:10;94970.91;;;23.54;35.23
22389;BME280;11362;48.102;11.620;2023-03-22T02:46:17;94970.91;;;23.54;35.17
22389;BME280;11362;48.102;11.620;2023-03-22T02:48:54;94976.47;;;23.54;34.91
22389;BME280;11362;48.102;11.620;2023-03-22T02:51:28;94978.47;;;23.54;35.14
22389;BME280;11362;48.102;11.620;2023-03-22T02:54:03;94980.44;;;23.53;35.18
22389;BME280;11362;48.102;11.620;2023-03-22T02:56:48;94978.88;;;23.52;35.14
22389;BME280;11362;48.102;11.620;2023-03-22T02:59:18;94972.13;;;23.53;35.13
22389;BME280;11362;48.102;11.620;2023-03-22T03:01:55;94986.78;;;23.54;35.17
22389;BME280;11362;48.102;11.620;2023-03-22T03:04:29;94983.22;;;23.53;35.09
22389;BME280;11362;48.102;11.620;2023-03-22T03:06:59;94981.66;;;23.52;35.26
22389;BME280;11362;48.102;11.620;2023-03-22T03:09:26;94980.44;;;23.53;34.97
22389;BME280;11362;48.102;11.620;2023-03-22T03:11:52;94993.09;;;23.54;34.99
22389;BME280;11362;48.102;11.620;2023-03-22T03:14:26;94995.88;;;23.54;35.01
22389;BME280;11362;48.102;11.620;2023-03-22T03:17:18;95000.19;;;23.55;35.11
22389;BME280;11362;48.102;11.620;2023-03-22T03:25:38;94997.88;;;23.54;34.97
22389;BME280;11362;48.102;11.620;2023-03-22T03:31:01;94996.31;;;23.53;35.01
22389;BME280;11362;48.102;11.620;2023-03-22T03:33:31;94991.53;;;23.53;35.02
22389;BME280;11362;48.102;11.620;2023-03-22T03:36:01;94995.88;;;23.54;35.14
22389;BME280;11362;48.102;11.620;2023-03-22T03:38:32;94997.09;;;23.53;35.14
22389;BME280;11362;48.102;11.620;2023-03-22T03:41:03;94994.31;;;23.53;34.97
22389;BME280;11362;48.102;11.620;2023-03-22T03:43:29;95001.41;;;23.54;34.96
22389;BME280;11362;48.102;11.620;2023-03-22T03:45:56;95006.53;;;23.56;34.97
22389;BME280;11362;48.102;11.620;2023-03-22T03:48:23;94999.84;;;23.53;34.92
22389;BME280;11362;48.102;11.620;2023-03-22T03:50:51;94997.88;;;23.54;34.82
22389;BME280;11362;48.102;11.620;2023-03-22T03:53:18;94997.09;;;23.53;35.01
22389;BME280;11362;48.102;11.620;2023-03-22T03:55:43;94995.88;;;23.54;34.99
22389;BME280;11362;48.102;11.620;2023-03-22T03:58:08;94996.31;;;23.53;35.18
22389;BME280;11362;48.102;11.620;2023-03-22T04:00:35;94990.31;;;23.54;34.87
22389;BME280;11362;48.102;11.620;2023-03-22T04:03:00;94986.00;;;23.53;35.00
22389;BME280;11362;48.102;11.620;2023-03-22T04:05:26;94987.56;;;23.54;35.01
22389;BME280;11362;48.102;11.620;2023-03-22T04:07:51;94987.56;;;23.54;34.98
22389;BME280;11362;48.102;11.620;2023-03-22T04:10:16;94980.81;;;23.55;34.90
22389;BME280;11362;48.102;11.620;2023-03-22T04:12:42;94984.38;;;23.56;34.96
22389;BME280;11362;48.102;11.620;2023-03-22T04:15:07;94991.88;;;23.55;34.91
22389;BME280;11362;48.102;11.620;2023-03-22T04:17:33;94977.69;;;23.53;34.95
22389;BME280;11362;48.102;11.620;2023-03-22T04:19:58;94980.44;;;23.53;34.94
22389;BME280;11362;48.102;11.620;2023-03-22T04:22:24;94985.16;;;23.56;34.89
22389;BME280;11362;48.102;11.620;2023-03-22T04:24:49;94978.03;;;23.55;34.83
22389;BME280;11362;48.102;11.620;2023-03-22T04:27:19;94980.81;;;23.55;34.87
22389;BME280;11362;48.102;11.620;2023-03-22T04:29:45;94994.66;;;23.55;34.94
22389;BME280;11362;48.102;11.620;2023-03-22T04:32:10;94984.44;;;23.52;34.81
22389;BME280;11362;48.102;11.620;2023-03-22T04:34:35;94996.25;;;23.56;34.89
22389;BME280;11362;48.102;11.620;2023-03-22T04:37:01;94989.13;;;23.55;34.85
22389;BME280;11362;48.102;11.620;2023-03-22T04:39:26;94985.16;;;23.56;34.91
22389;BME280;11362;48.102;11.620;2023-03-22T04:41:51;94982.00;;;23.54;34.82
22389;BME280;11362;48.102;11.620;2023-03-22T04:44:16;94983.56;;;23.55;34.83
22389;BME280;11362;48.102;11.620;2023-03-22T04:46:42;94978.81;;;23.56;34.85
22389;BME280;11362;48.102;11.620;2023-03-22T04:49:07;94973.69;;;23.54;34.78
22389;BME280;11362;48.102;11.620;2023-03-22T04:51:32;94976.84;;;23.56;34.96
22389;BME280;11362;48.102;11.620;2023-03-22T04:53:58;94978.03;;;23.55;34.87
22389;BME280;11362;48.102;11.620;2023-03-22T04:56:23;94979.63;;;23.56;34.60
22389;BME280;11362;48.102;11.620;2023-03-22T04:58:49;94978.41;;;23.57;34.74
22389;BME280;11362;48.102;11.620;2023-03-22T05:01:16;94979.63;;;23.56;34.79
22389;BME280;11362;48.102;11.620;2023-03-22T05:03:42;94974.06;;;23.56;34.80
22389;BME280;11362;48.102;11.620;2023-03-22T05:06:08;94982.38;;;23.56;34.80
22389;BME280;11362;48.102;11.620;2023-03-22T05:08:34;94984.72;;;23.58;34.75
22389;BME280;11362;48.102;11.620;2023-03-22T05:11:06;94987.50;;;23.58;34.81
22389;BME280;11362;48.102;11.620;2023-03-22T05:13:32;94981.19;;;23.57;34.69
22389;BME280;11362;48.102;11.620;2023-03-22T05:15:57;94979.16;;;23.58;34.87
22389;BME280;11362;48.102;11.620;2023-03-22T05:18:23;94979.16;;;23.58;35.15
22389;BME280;11362;48.102;11.620;2023-03-22T05:20:48;94980.31;;;23.60;35.07
22389;BME280;11362;48.102;11.620;2023-03-22T05:23:14;94981.53;;;23.59;35.02
22389;BME280;11362;48.102;11.620;2023-03-22T05:25:39;94978.75;;;23.59;35.08
22389;BME280;11362;48.102;11.620;2023-03-22T05:28:05;94984.31;;;23.59;35.19
22389;BME280;11362;48.102;11.620;2023-03-22T05:30:31;94984.66;;;23.61;35.19
22389;BME280;11362;48.102;11.620;2023-03-22T05:33:02;94981.88;;;23.61;35.29
22389;BME280;11362;48.102;11.620;2023-03-22T05:35:31;94980.66;;;23.62;35.25
22389;BME280;11362;48.102;11.620;2023-03-22T05:37:57;94984.66;;;23.61;35.32
22389;BME280;11362;48.102;11.620;2023-03-22T05:40:23;94988.22;;;23.62;35.32
22389;BME280;11362;48.102;11.620;2023-03-22T05:42:49;94981.88;;;23.61;35.40
22389;BME280;11362;48.102;11.620;2023-03-22T05:45:14;94992.13;;;23.64;35.27
22389;BME280;11362;48.102;11.620;2023-03-22T05:47:40;94995.25;;;23.66;35.31
22389;BME280;11362;48.102;11.620;2023-03-22T05:50:07;94991.63;;;23.69;35.60
22389;BME280;11362;48.102;11.620;2023-03-22T05:52:33;94992.84;;;23.68;35.59
22389;BME280;11362;48.102;11.620;2023-03-22T05:54:58;94997.56;;;23.71;35.66
22389;BME280;11362;48.102;11.620;2023-03-22T05:57:24;94992.78;;;23.72;35.63
22389;BME280;11362;48.102;11.620;2023-03-22T05:59:49;94999.19;;;23.69;35.89
22389;BME280;11362;48.102;11.620;2023-03-22T06:02:14;94994.41;;;23.69;35.78
22389;BME280;11362;48.102;11.620;2023-03-22T06:04:39;94999.19;;;23.69;36.18
22389;BME280;11362;48.102;11.620;2023-03-22T06:07:05;94994.78;;;23.71;36.57
22389;BME280;11362;48.102;11.620;2023-03-22T06:09:30;94986.41;;;23.75;36.49
22389;BME280;11362;48.102;11.620;2023-03-22T06:11:57;94982.06;;;23.74;36.30
22389;BME280;11362;48.102;11.620;2023-03-22T06:14:22;94986.41;;;23.75;36.48
22389;BME280;11362;48.102;11.620;2023-03-22T06:16:47;94984.78;;;23.77;36.66
22389;BME280;11362;48.102;11.620;2023-03-22T06:19:13;94991.88;;;23.78;36.79
22389;BME280;11362;48.102;11.620;2023-03-22T06:21:38;94992.22;;;23.80;36.79
22389;BME280;11362;48.102;11.620;2023-03-22T06:24:03;94994.66;;;23.78;36.86
22389;BME280;11362;48.102;11.620;2023-03-22T06:26:29;94983.19;;;23.76;36.91
22389;BME280;11362;48.102;11.620;2023-03-22T06:28:54;94986.34;;;23.78;36.70
22389;BME280;11362;48.102;11.620;2023-03-22T06:31:19;95005.75;;;23.78;37.07
22389;BME280;11362;48.102;11.620;2023-03-22T06:33:45;94997.78;;;23.80;36.92
22389;BME280;11362;48.102;11.620;2023-03-22T06:36:10;95004.53;;;23.79;36.86
22389;BME280;11362;48.102;11.620;2023-03-22T06:38:35;95006.91;;;23.81;37.26
22389;BME280;11362;48.102;11.620;2023-03-22T06:41:01;94985.47;;;23.81;36.88
22389;BME280;11362;48.102;11.620;2023-03-22T06:43:26;94966.06;;;23.81;37.02
22389;BME280;11362;48.102;11.620;2023-03-22T06:45:51;94966.06;;;23.81;36.97
22389;BME280;11362;48.102;11.620;2023-03-22T06:48:17;94967.28;;;23.80;36.83
22389;BME280;11362;48.102;11.620;2023-03-22T06:50:43;95004.53;;;23.79;36.79
22389;BME280;11362;48.102;11.620;2023-03-22T06:53:08;94997.78;;;23.80;36.72
22389;BME280;11362;48.102;11.620;2023-03-22T06:55:34;95008.47;;;23.82;36.58
22389;BME280;11362;48.102;11.620;2023-03-22T06:58:00;95002.09;;;23.81;36.49
22389;BME280;11362;48.102;11.620;2023-03-22T07:00:26;94999.00;;;23.79;36.54
22389;BME280;11362;48.102;11.620;2023-03-22T07:02:52;95004.94;;;23.78;36.17
22389;BME280;11362;48.102;11.620;2023-03-22T07:05:18;94998.19;;;23.79;36.22
22389;BME280;11362;48.102;11.620;2023-03-22T07:07:43;95004.53;;;23.79;36.10
22389;BME280;11362;48.102;11.620;2023-03-22T07:10:09;95004.53;;;23.79;36.13
22389;BME280;11362;48.102;11.620;2023-03-22T07:12:34;95000.19;;;23.78;36.12
22389;BME280;11362;48.102;11.620;2023-03-22T07:14:59;95012.50;;;23.77;36.01
22389;BME280;11362;48.102;11.620;2023-03-22T07:17:25;95008.06;;;23.80;36.25
22389;BME280;11362;48.102;11.620;2023-03-22T07:19:50;95023.94;;;23.79;35.93
22389;BME280;11362;48.102;11.620;2023-03-22T07:22:15;95026.72;;;23.79;35.91
22389;BME280;11362;48.102;11.620;2023-03-22T07:24:40;95022.81;;;23.77;35.88
22389;BME280;11362;48.102;11.620;2023-03-22T07:27:06;95023.38;;;22.96;31.48
22389;BME280;11362;48.102;11.620;2023-03-22T07:29:31;95025.97;;;22.50;31.67
22389;BME280;11362;48.102;11.620;2023-03-22T07:31:56;95029.22;;;22.75;31.02
22389;BME280;11362;48.102;11.620;2023-03-22T07:34:22;95024.97;;;22.94;31.50
22389;BME280;11362;48.102;11.620;2023-03-22T07:36:47;95011.22;;;23.13;31.93
22389;BME280;11362;48.102;11.620;2023-03-22T07:39:12;95014.94;;;23.30;32.44
22389;BME280;11362;48.102;11.620;2023-03-22T07:41:38;95002.88;;;23.39;32.84
22389;BME280;11362;48.102;11.620;2023-03-22T07:44:04;95001.97;;;23.46;33.00
22389;BME280;11362;48.102;11.620;2023-03-22T07:46:29;95005.03;;;23.51;33.52
22389;BME280;11362;48.102;11.620;2023-03-22T07:48:54;94996.31;;;23.53;33.55
22389;BME280;11362;48.102;11.620;2023-03-22T07:51:20;95006.53;;;23.56;33.68
22389;BME280;11362;48.102;11.620;2023-03-22T07:53:45;95001.00;;;23.56;33.68
22389;BME280;11362;48.102;11.620;2023-03-22T07:56:10;95003.34;;;23.57;33.84
22389;BME280;11362;48.102;11.620;2023-03-22T07:58:36;95003.28;;;23.61;33.82
22389;BME280;11362;48.102;11.620;2023-03-22T08:01:05;95004.78;;;23.65;34.11
22389;BME280;11362;48.102;11.620;2023-03-22T08:03:31;95004.72;;;23.69;34.12
22389;BME280;11362;48.102;11.620;2023-03-22T08:05:59;95005.09;;;23.71;34.22
22389;BME280;11362;48.102;11.620;2023-03-22T08:08:25;95009.00;;;23.73;34.14
22389;BME280;11362;48.102;11.620;2023-03-22T08:10:50;95003.81;;;23.75;34.48
22389;BME280;11362;48.102;11.620;2023-03-22T08:13:15;94999.81;;;23.76;34.20
22389;BME280;11362;48.102;11.620;2023-03-22T08:15:41;95004.53;;;23.79;34.60
22389;BME280;11362;48.102;11.620;2023-03-22T08:18:06;95011.22;;;23.82;34.61
22389;BME280;11362;48.102;11.620;2023-03-22T08:20:31;95001.69;;;23.83;34.71
22389;BME280;11362;48.102;11.620;2023-03-22T08:22:56;95010.75;;;23.87;34.76
22389;BME280;11362;48.102;11.620;2023-03-22T08:25:22;95006.00;;;23.87;34.88
22389;BME280;11362;48.102;11.620;2023-03-22T08:27:47;94998.81;;;23.90;34.88
22389;BME280;11362;48.102;11.620;2023-03-22T08:30:13;94998.75;;;23.93;34.91
22389;BME280;11362;48.102;11.620;2023-03-22T08:32:38;95007.41;;;23.95;34.99
22389;BME280;11362;48.102;11.620;2023-03-22T08:35:05;94998.31;;;23.95;34.98
22389;BME280;11362;48.102;11.620;2023-03-22T08:37:30;95005.78;;;23.98;35.11
22389;BME280;11362;48.102;11.620;2023-03-22T08:39:55;94995.91;;;23.97;35.28
22389;BME280;11362;48.102;11.620;2023-03-22T08:42:21;94999.81;;;23.99;35.09
22389;BME280;11362;48.102;11.620;2023-03-22T08:44:46;95005.72;;;24.01;35.17
22389;BME280;11362;48.102;11.620;2023-03-22T08:47:12;95004.50;;;24.02;35.13
22389;BME280;11362;48.102;11.620;2023-03-22T08:49:37;94996.19;;;24.02;35.22
22389;BME280;11362;48.102;11.620;2023-03-22T08:52:03;94992.19;;;24.03;35.47
22389;BME280;11362;48.102;11.620;2023-03-22T08:54:28;94989.00;;;24.05;35.24
22389;BME280;11362;48.102;11.620;2023-03-22T08:56:53;94992.53;;;24.05;35.40
22389;BME280;11362;48.102;11.620;2023-03-22T08:59:19;94981.81;;;24.07;35.45
22389;BME280;11362;48.102;11.620;2023-03-22T09:01:44;94987.38;;;24.07;35.40
22389;BME280;11362;48.102;11.620;2023-03-22T09:04:09;94986.16;;;24.08;35.42
22389;BME280;11362;48.102;11.620;2023-03-22T09:06:35;94984.94;;;24.09;35.33
22389;BME280;11362;48.102;11.620;2023-03-22T09:09:00;94978.59;;;24.09;35.41
22389;BME280;11362;48.102;11.620;2023-03-22T09:11:26;94980.97;;;24.10;35.47
22389;BME280;11362;48.102;11.620;2023-03-22T09:13:51;94980.19;;;24.10;35.52
22389;BME280;11362;48.102;11.620;2023-03-22T09:16:17;94975.81;;;24.09;35.44
22389;BME280;11362;48.102;11.620;2023-03-22T09:18:43;94976.97;;;24.11;35.48
22389;BME280;11362;48.102;11.620;2023-03-22T09:21:09;94952.78;;;24.12;35.37
22389;BME280;11362;48.102;11.620;2023-03-22T09:23:35;94949.22;;;24.11;35.44
22389;BME280;11362;48.102;11.620;2023-03-22T09:26:03;94978.53;;;24.12;35.61
22389;BME280;11362;48.102;11.620;2023-03-22T09:28:30;94971.41;;;24.11;35.49
22389;BME280;11362;48.102;11.620;2023-03-22T09:31:00;94968.22;;;24.13;35.54
22389;BME280;11362;48.102;11.620;2023-03-22T09:33:26;94976.13;;;24.14;35.50
22389;BME280;11362;48.102;11.620;2023-03-22T09:35:53;94969.38;;;24.15;35.59
22389;BME280;11362;48.102;11.620;2023-03-22T09:38:19;94962.25;;;24.14;35.56
22389;BME280;11362;48.102;11.620;2023-03-22T09:40:52;94970.13;;;24.16;35.63
22389;BME280;11362;48.102;11.620;2023-03-22T09:43:18;94964.25;;;24.14;35.69
22389;BME280;11362;48.102;11.620;2023-03-22T09:45:47;94961.81;;;24.16;35.39
22389;BME280;11362;48.102;11.620;2023-03-22T09:48:23;94955.50;;;24.15;35.52
22389;BME280;11362;48.102;11.620;2023-03-22T09:50:53;94959.81;;;24.16;35.61
22389;BME280;11362;48.102;11.620;2023-03-22T09:53:20;94952.31;;;24.17;35.58
22389;BME280;11362;48.102;11.620;2023-03-22T09:55:56;94951.50;;;24.16;35.75
22389;BME280;11362;48.102;11.620;2023-03-22T09:58:36;94950.28;;;24.17;35.61
22389;BME280;11362;48.102;11.620;2023-03-22T10:01:40;94951.44;;;24.20;35.60
22389;BME280;11362;48.102;11.620;2023-03-22T10:07:04;94943.53;;;24.18;35.75
22389;BME280;11362;48.102;11.620;2023-03-22T10:09:35;94938.78;;;24.19;35.88
22389;BME280;11362;48.102;11.620;2023-03-22T10:12:19;94937.56;;;24.20;35.81
22389;BME280;11362;48.102;11.620;2023-03-22T10:14:50;94936.00;;;24.19;35.85
22389;BME280;11362;48.102;11.620;2023-03-22T10:17:24;94963.31;;;24.20;35.03
22389;BME280;11362;48.102;11.620;2023-03-22T10:20:03;94924.69;;;24.10;34.48
22389;BME280;11362;48.102;11.620;2023-03-22T10:22:33;94924.31;;;24.08;34.43
22389;BME280;11362;48.102;11.620;2023-03-22T10:24:59;94927.09;;;24.08;34.18
22389;BME280;11362;48.102;11.620;2023-03-22T10:27:27;94918.00;;;24.07;33.89
22389;BME280;11362;48.102;11.620;2023-03-22T10:30:06;94918.34;;;24.09;34.07
22389;BME280;11362;48.102;11.620;2023-03-22T10:32:42;94913.16;;;24.11;33.99
22389;BME280;11362;48.102;11.620;2023-03-22T10:35:13;94916.28;;;24.13;34.38
22389;BME280;11362;48.102;11.620;2023-03-22T10:37:40;94902.44;;;24.13;34.29
22389;BME280;11362;48.102;11.620;2023-03-22T10:40:14;94907.19;;;24.13;34.25
22389;BME280;11362;48.102;11.620;2023-03-22T10:42:45;94898.44;;;24.14;34.31
22389;BME280;11362;48.102;11.620;2023-03-22T10:45:14;94907.97;;;24.13;34.29
22389;BME280;11362;48.102;11.620;2023-03-22T10:47:48;94901.63;;;24.13;34.43
22389;BME280;11362;48.102;11.620;2023-03-22T10:50:19;94907.19;;;24.13;34.37
22389;BME280;11362;48.102;11.620;2023-03-22T10:52:50;94906.38;;;24.12;34.52
22389;BME280;11362;48.102;11.620;2023-03-22T10:55:16;94896.06;;;24.13;34.55
22389;BME280;11362;48.102;11.620;2023-03-22T10:57:57;94899.13;;;24.18;34.82
22389;BME280;11362;48.102;11.620;2023-03-22T11:00:23;94891.50;;;24.22;35.05
22389;BME280;11362;48.102;11.620;2023-03-22T11:02:57;94889.94;;;24.21;35.02
22389;BME280;11362;48.102;11.620;2023-03-22T11:05:25;94888.28;;;24.24;35.20
22389;BME280;11362;48.102;11.620;2023-03-22T11:07:52;94899.03;;;24.22;35.10
22389;BME280;11362;48.102;11.620;2023-03-22T11:10:20;94897.06;;;24.22;35.30
22389;BME280;11362;48.102;11.620;2023-03-22T11:12:52;94893.16;;;24.20;35.11
22389;BME280;11362;48.102;11.620;2023-03-22T11:17:44;94892.34;;;24.19;35.07
22389;BME280;11362;48.102;11.620;2023-03-22T11:20:14;94888.81;;;24.19;35.04
22389;BME280;11362;48.102;11.620;2023-03-22T11:22:43;94912.56;;;24.20;35.33
22389;BME280;11362;48.102;11.620;2023-03-22T11:25:21;94874.53;;;24.20;35.17
22389;BME280;11362;48.102;11.620;2023-03-22T11:27:52;94880.84;;;24.21;35.25
22389;BME280;11362;48.102;11.620;2023-03-22T11:30:26;94880.06;;;24.20;35.12
22389;BME280;11362;48.102;11.620;2023-03-22T11:35:30;94887.19;;;24.21;35.47
22389;BME280;11362;48.102;11.620;2023-03-22T11:37:56;94880.06;;;24.20;35.32
22389;BME280;11362;48.102;11.620;2023-03-22T11:40:24;94880.41;;;24.22;35.53
22389;BME280;11362;48.102;11.620;2023-03-22T11:42:53;94879.63;;;24.22;35.56
22389;BME280;11362;48.102;11.620;2023-03-22T11:45:28;94860.97;;;24.22;35.52
22389;BME280;11362;48.102;11.620;2023-03-22T11:48:00;94866.53;;;24.22;35.62
22389;BME280;11362;48.102;11.620;2023-03-22T11:50:29;94864.53;;;24.23;35.64
22389;BME280;11362;48.102;11.620;2023-03-22T11:52:55;94864.91;;;24.25;35.52
22389;BME280;11362;48.102;11.620;2023-03-22T11:55:20;94864.09;;;24.24;36.10
22389;BME280;11362;48.102;11.620;2023-03-22T11:57:45;94855.78;;;24.24;35.45
22389;BME280;11362;48.102;11.620;2023-03-22T12:00:20;94852.66;;;24.22;35.52
22389;BME280;11362;48.102;11.620;2023-03-22T12:02:50;94848.66;;;24.23;35.25
22389;BME280;11362;48.102;11.620;2023-03-22T12:05:21;94852.66;;;24.22;35.22
22389;BME280;11362;48.102;11.620;2023-03-22T12:07:52;94849.09;;;24.22;35.38
22389;BME280;11362;48.102;11.620;2023-03-22T12:10:24;94845.09;;;24.23;35.40
22389;BME280;11362;48.102;11.620;2023-03-22T12:12:58;94838.31;;;24.24;35.36
22389;BME280;11362;48.102;11.620;2023-03-22T12:15:33;94836.34;;;24.24;35.44
22389;BME280;11362;48.102;11.620;2023-03-22T12:18:12;94834.38;;;24.25;35.51
22389;BME280;11362;48.102;11.620;2023-03-22T12:20:43;94829.25;;;24.23;35.25
22389;BME280;11362;48.102;11.620;2023-03-22T12:23:17;94832.00;;;24.23;35.56
22389;BME280;11362;48.102;11.620;2023-03-22T12:25:56;94826.81;;;24.25;35.52
22389;BME280;11362;48.102;11.620;2023-03-22T12:28:27;94828.03;;;24.24;35.53
22389;BME280;11362;48.102;11.620;2023-03-22T12:30:55;94825.25;;;24.24;35.40
22389;BME280;11362;48.102;11.620;2023-03-22T12:33:22;94826.38;;;24.27;35.36
22389;BME280;11362;48.102;11.620;2023-03-22T12:35:50;94829.91;;;24.27;35.43
22389;BME280;11362;48.102;11.620;2023-03-22T12:38:24;94817.25;;;24.26;35.58
22389;BME280;11362;48.102;11.620;2023-03-22T12:40:53;94816.03;;;24.27;35.40
22389;BME280;11362;48.102;11.620;2023-03-22T12:46:21;94791.84;;;24.28;35.48
22389;BME280;11362;48.102;11.620;2023-03-22T12:48:52;94783.53;;;24.28;35.63
22389;BME280;11362;48.102;11.620;2023-03-22T12:51:18;94792.66;;;24.28;35.63
22389;BME280;11362;48.102;11.620;2023-03-22T12:53:46;94789.41;;;24.30;35.52
22389;BME280;11362;48.102;11.620;2023-03-22T12:56:17;94781.53;;;24.28;35.53
22389;BME280;11362;48.102;11.620;2023-03-22T12:58:47;94778.31;;;24.30;35.81
22389;BME280;11362;48.102;11.620;2023-03-22T13:01:21;94780.66;;;24.31;35.63
22389;BME280;11362;48.102;11.620;2023-03-22T13:03:51;94768.00;;;24.30;35.73
22389;BME280;11362;48.102;11.620;2023-03-22T13:09:17;94765.56;;;24.32;35.91
22389;BME280;11362;48.102;11.620;2023-03-22T13:11:48;94762.78;;;24.32;35.94
22389;BME280;11362;48.102;11.620;2023-03-22T13:19:59;94751.59;;;24.36;35.89
22389;BME280;11362;48.102;11.620;2023-03-22T13:35:50;94754.28;;;24.39;35.66
22389;BME280;11362;48.102;11.620;2023-03-22T13:41:06;94740.31;;;24.43;35.85
22389;BME280;11362;48.102;11.620;2023-03-22T13:43:34;94739.09;;;24.44;35.55
22389;BME280;11362;48.102;11.620;2023-03-22T13:46:11;94753.78;;;24.44;35.68
22389;BME280;11362;48.102;11.620;2023-03-22T13:54:09;94744.66;;;24.44;35.65
22389;BME280;11362;48.102;11.620;2023-03-22T13:59:09;94739.03;;;24.47;35.53